Time;durP1;ratioP1;P1;durP2;ratioP2;P2;SDS_P1;SDS_P2;PMS_P1;PMS_P2;Temp;Humidity;BMP_temperature;BMP_pressure;BME280_temperature;BME280_humidity;BME280_pressure;Samples;Min_cycle;Max_cycle;Signal;HPM_P1;HPM_P2
2023/04/15 00:01:24;;;;;;;9.77;4.65;;;11.60;90.60;;;;;;6246946;23;20040;-91
2023/04/15 00:03:52;;;;;;;12.07;4.78;;;11.60;90.60;;;;;;6173941;23;20001;-94
2023/04/15 00:06:21;;;;;;;10.07;4.63;;;11.50;91.00;;;;;;6199457;23;20018;-94
2023/04/15 00:08:47;;;;;;;10.18;4.70;;;11.50;91.10;;;;;;6195819;23;20091;-87
2023/04/15 00:11:13;;;;;;;8.63;4.68;;;11.50;91.20;;;;;;6220660;23;20335;-87
2023/04/15 00:13:39;;;;;;;8.38;4.32;;;11.50;91.40;;;;;;6246065;23;20362;-86
2023/04/15 00:16:07;;;;;;;7.93;4.47;;;11.50;91.30;;;;;;6195261;23;20008;-87
2023/04/15 00:18:33;;;;;;;9.90;4.80;;;11.40;91.50;;;;;;6220168;23;20012;-87
2023/04/15 00:20:59;;;;;;;7.13;4.72;;;11.40;91.60;;;;;;6247102;22;20004;-92
2023/04/15 00:23:25;;;;;;;8.18;4.53;;;11.40;91.70;;;;;;6245728;23;20000;-91
2023/04/15 00:25:51;;;;;;;7.88;4.60;;;11.40;92.00;;;;;;6221643;23;20008;-91
2023/04/15 00:28:18;;;;;;;8.73;4.80;;;11.40;92.20;;;;;;6222094;22;19984;-91
2023/04/15 00:30:44;;;;;;;9.40;4.95;;;11.30;92.30;;;;;;6223261;23;20004;-91
2023/04/15 00:33:11;;;;;;;6.90;4.53;;;11.30;92.50;;;;;;6197707;23;19991;-91
2023/04/15 00:35:37;;;;;;;9.07;4.50;;;11.30;92.90;;;;;;6225467;23;20387;-93
2023/04/15 00:38:06;;;;;;;11.00;5.00;;;11.30;93.10;;;;;;6163814;23;20004;-94
2023/04/15 00:40:32;;;;;;;7.50;4.50;;;11.20;93.30;;;;;;6187733;23;20001;-93
2023/04/15 00:42:59;;;;;;;9.70;4.82;;;11.20;93.40;;;;;;6163077;23;20019;-94
2023/04/15 00:45:26;;;;;;;8.05;4.30;;;11.20;93.60;;;;;;6187862;23;20002;-92
2023/04/15 00:47:52;;;;;;;10.27;5.03;;;11.20;93.70;;;;;;6162751;23;20008;-92
2023/04/15 00:50:18;;;;;;;8.60;4.82;;;11.20;93.90;;;;;;6188517;23;20005;-93
2023/04/15 00:52:44;;;;;;;8.63;4.20;;;11.20;93.90;;;;;;6188492;23;19997;-85
2023/04/15 00:55:28;;;;;;;10.02;4.85;;;11.10;94.10;;;;;;6162165;23;20083;-85
2023/04/15 00:57:55;;;;;;;7.97;4.55;;;11.10;94.50;;;;;;6161504;23;20316;-85
2023/04/15 01:00:21;;;;;;;8.43;4.93;;;11.10;94.70;;;;;;6160511;23;20005;-85
2023/04/15 01:02:47;;;;;;;9.80;5.07;;;11.10;94.80;;;;;;6161587;23;20015;-86
2023/04/15 01:05:16;;;;;;;9.98;5.50;;;11.10;94.90;;;;;;6160866;23;20008;-85
2023/04/15 01:07:42;;;;;;;9.98;4.78;;;11.10;95.10;;;;;;6161538;23;20021;-85
2023/04/15 01:10:08;;;;;;;11.73;5.25;;;11.10;95.40;;;;;;6161855;23;20001;-91
2023/04/15 01:12:34;;;;;;;11.48;5.10;;;11.10;95.50;;;;;;6187188;23;20016;-90
2023/04/15 01:15:03;;;;;;;8.70;4.43;;;11.00;95.70;;;;;;6162365;23;20013;-92
2023/04/15 01:17:29;;;;;;;8.63;4.53;;;11.00;95.80;;;;;;6161752;23;20013;-91
2023/04/15 01:19:56;;;;;;;7.38;4.43;;;11.00;95.90;;;;;;6186193;23;20005;-85
2023/04/15 01:22:23;;;;;;;8.43;4.80;;;11.00;96.20;;;;;;6186565;23;20068;-85
2023/04/15 01:25:34;;;;;;;10.85;5.57;;;11.00;96.40;;;;;;6184989;23;20001;-86
2023/04/15 01:28:00;;;;;;;9.63;4.85;;;10.90;96.70;;;;;;6133037;23;20479;-94
2023/04/15 01:30:26;;;;;;;8.93;5.00;;;10.90;97.20;;;;;;6187737;23;20005;-93
2023/04/15 01:32:53;;;;;;;9.00;5.28;;;10.90;96.90;;;;;;6162284;23;20341;-92
2023/04/15 01:35:20;;;;;;;8.55;5.20;;;10.90;97.10;;;;;;6189009;23;20014;-93
2023/04/15 01:37:46;;;;;;;8.00;4.80;;;10.80;97.40;;;;;;6190892;23;20024;-92
2023/04/15 01:40:12;;;;;;;9.77;5.03;;;10.80;97.50;;;;;;6140064;23;20005;-93
2023/04/15 01:42:38;;;;;;;10.68;5.50;;;10.80;97.60;;;;;;6137554;23;20040;-84
2023/04/15 01:45:05;;;;;;;8.88;5.32;;;10.80;97.90;;;;;;6160434;23;20055;-85
2023/04/15 01:47:31;;;;;;;8.95;5.13;;;10.80;98.10;;;;;;6185008;23;20028;-85
2023/04/15 01:49:56;;;;;;;9.30;5.18;;;10.80;98.30;;;;;;6173344;23;20056;-86
2023/04/15 01:52:22;;;;;;;7.40;5.03;;;10.80;98.50;;;;;;6160782;23;20317;-87
2023/04/15 01:54:48;;;;;;;7.25;4.55;;;10.70;98.80;;;;;;6185225;23;20023;-87
2023/04/15 01:57:15;;;;;;;11.05;6.00;;;10.80;98.90;;;;;;6136150;23;20009;-87
2023/04/15 01:59:44;;;;;;;8.70;5.63;;;10.70;99.00;;;;;;6111822;23;20083;-87
2023/04/15 02:02:10;;;;;;;10.27;5.03;;;10.70;99.10;;;;;;6111984;23;20017;-87
2023/04/15 02:04:36;;;;;;;10.13;5.32;;;10.70;99.20;;;;;;6135991;23;20081;-86
2023/04/15 02:07:02;;;;;;;8.60;4.93;;;10.60;99.20;;;;;;6136184;23;20005;-87
2023/04/15 02:09:28;;;;;;;7.60;5.35;;;10.60;99.30;;;;;;6112354;23;20028;-86
2023/04/15 02:11:53;;;;;;;8.18;4.93;;;10.60;99.60;;;;;;6138026;23;20139;-87
2023/04/15 02:14:19;;;;;;;7.80;5.15;;;10.60;99.90;;;;;;6137594;23;20429;-87
2023/04/15 02:16:45;;;;;;;8.95;5.18;;;10.60;99.90;;;;;;6137106;23;20020;-85
2023/04/15 02:19:11;;;;;;;11.52;5.40;;;10.60;99.90;;;;;;6162230;23;20005;-85
2023/04/15 02:21:43;;;;;;;8.57;4.90;;;10.60;99.90;;;;;;6137089;23;20016;-86
2023/04/15 02:24:11;;;;;;;8.95;4.90;;;10.60;99.90;;;;;;6189564;23;20001;-94
2023/04/15 02:26:36;;;;;;;8.68;5.28;;;10.50;99.90;;;;;;6134506;23;20010;-94
2023/04/15 02:29:02;;;;;;;8.45;5.15;;;10.50;99.90;;;;;;6107567;23;20010;-93
2023/04/15 02:31:28;;;;;;;8.52;4.82;;;10.50;99.90;;;;;;6134277;23;20052;-93
2023/04/15 02:33:57;;;;;;;9.48;5.00;;;10.60;99.90;;;;;;6133163;23;20017;-90
2023/04/15 02:36:23;;;;;;;7.40;5.55;;;10.50;99.90;;;;;;6179136;23;20043;-91
2023/04/15 02:38:48;;;;;;;8.38;5.30;;;10.50;99.90;;;;;;6138804;23;20040;-92
2023/04/15 02:41:24;;;;;;;8.13;5.30;;;10.50;99.90;;;;;;6162772;23;20036;-92
2023/04/15 02:43:53;;;;;;;9.15;5.43;;;10.50;99.90;;;;;;6139905;23;20084;-92
2023/04/15 02:46:20;;;;;;;8.65;5.22;;;10.50;99.90;;;;;;6163225;23;20024;-91
2023/04/15 02:48:46;;;;;;;8.02;5.38;;;10.50;99.90;;;;;;6163221;23;20005;-85
2023/04/15 02:51:18;;;;;;;10.77;5.70;;;10.50;99.90;;;;;;6161816;23;20016;-85
2023/04/15 02:53:45;;;;;;;11.07;5.47;;;10.40;99.90;;;;;;6186838;23;20056;-85
2023/04/15 02:56:11;;;;;;;8.20;5.20;;;10.40;99.90;;;;;;6161706;23;20009;-86
2023/04/15 02:58:39;;;;;;;10.02;5.63;;;10.40;99.90;;;;;;6186811;23;20428;-86
2023/04/15 03:01:06;;;;;;;8.07;5.72;;;10.40;99.90;;;;;;6187497;23;20001;-86
2023/04/15 03:03:32;;;;;;;9.40;5.40;;;10.40;99.90;;;;;;6137871;23;20015;-86
2023/04/15 03:05:57;;;;;;;10.63;6.00;;;10.30;99.90;;;;;;6162720;23;20087;-92
2023/04/15 03:08:23;;;;;;;7.97;5.30;;;10.30;99.90;;;;;;6142416;23;20421;-92
2023/04/15 03:11:01;;;;;;;8.20;5.22;;;10.30;99.90;;;;;;6162663;23;20016;-91
2023/04/15 03:13:27;;;;;;;7.53;5.07;;;10.30;99.90;;;;;;6162775;23;20337;-92
2023/04/15 03:15:53;;;;;;;8.43;5.50;;;10.30;99.90;;;;;;6187079;23;20005;-89
2023/04/15 03:18:18;;;;;;;9.98;5.90;;;10.20;99.90;;;;;;6138111;23;20015;-91
2023/04/15 03:20:44;;;;;;;8.02;5.43;;;10.20;99.90;;;;;;6137448;23;20067;-91
2023/04/15 03:23:10;;;;;;;7.88;5.35;;;10.20;99.90;;;;;;6137768;23;20324;-86
2023/04/15 03:25:36;;;;;;;12.73;5.90;;;10.20;99.90;;;;;;6161398;23;20009;-87
2023/04/15 03:28:03;;;;;;;10.23;6.15;;;10.20;99.90;;;;;;6211684;23;20012;-86
2023/04/15 03:30:28;;;;;;;9.90;6.03;;;10.20;99.90;;;;;;6192194;23;20008;-86
2023/04/15 03:32:54;;;;;;;7.93;5.47;;;10.20;99.90;;;;;;6139266;23;20006;-85
2023/04/15 03:35:20;;;;;;;9.23;5.55;;;10.20;99.90;;;;;;6201090;23;20021;-86
2023/04/15 03:37:47;;;;;;;10.50;7.13;;;10.10;99.90;;;;;;6191309;23;20012;-86
2023/04/15 03:40:13;;;;;;;9.93;5.70;;;10.10;99.90;;;;;;6206918;23;20010;-92
2023/04/15 03:42:39;;;;;;;10.90;6.45;;;10.10;99.90;;;;;;6211262;23;20009;-91
2023/04/15 03:45:06;;;;;;;9.45;6.38;;;10.10;99.90;;;;;;6235030;23;20016;-92
2023/04/15 03:47:32;;;;;;;9.70;6.55;;;10.10;99.90;;;;;;6210711;23;20005;-93
2023/04/15 03:49:57;;;;;;;11.65;6.15;;;10.10;99.90;;;;;;6196376;23;20020;-93
2023/04/15 03:52:29;;;;;;;8.20;5.63;;;10.00;99.90;;;;;;6193480;23;20200;-94
2023/04/15 03:55:04;;;;;;;9.50;5.88;;;10.00;99.90;;;;;;6169297;23;20392;-92
2023/04/15 03:57:30;;;;;;;10.02;6.15;;;10.00;99.90;;;;;;6213830;23;20008;-91
2023/04/15 03:59:56;;;;;;;9.52;6.50;;;10.00;99.90;;;;;;6214843;23;20005;-92
2023/04/15 04:02:22;;;;;;;11.70;5.90;;;10.00;99.90;;;;;;6189359;23;20008;-92
2023/04/15 04:04:48;;;;;;;9.82;6.88;;;9.90;99.90;;;;;;6212060;23;20273;-91
2023/04/15 04:07:15;;;;;;;9.43;6.82;;;9.90;99.90;;;;;;6187014;23;20055;-91
2023/04/15 04:09:41;;;;;;;9.25;6.82;;;9.90;99.90;;;;;;6211897;23;20001;-91
2023/04/15 04:12:07;;;;;;;11.07;6.57;;;9.90;99.90;;;;;;6209491;23;20008;-90
2023/04/15 04:14:33;;;;;;;10.63;6.70;;;9.90;99.90;;;;;;6192451;23;20036;-90
2023/04/15 04:16:59;;;;;;;11.02;6.70;;;9.90;99.90;;;;;;6192145;23;20035;-92
2023/04/15 04:19:25;;;;;;;10.07;6.68;;;9.80;99.90;;;;;;6243263;23;20015;-90
2023/04/15 04:21:51;;;;;;;9.00;6.43;;;9.80;99.90;;;;;;6191894;23;20091;-90
2023/04/15 04:24:16;;;;;;;11.02;6.85;;;9.80;99.90;;;;;;6191470;23;20009;-91
2023/04/15 04:26:42;;;;;;;11.20;6.75;;;9.80;99.90;;;;;;6191994;23;20039;-92
2023/04/15 04:29:08;;;;;;;8.98;6.30;;;9.80;99.90;;;;;;6192252;23;20032;-85
2023/04/15 04:31:34;;;;;;;11.05;6.57;;;9.80;99.90;;;;;;6190750;23;20008;-86
2023/04/15 04:33:59;;;;;;;12.00;8.13;;;9.70;99.90;;;;;;6190692;23;20164;-86
2023/04/15 04:36:25;;;;;;;10.68;7.13;;;9.70;99.90;;;;;;6186269;23;20017;-86
2023/04/15 04:38:51;;;;;;;11.20;6.93;;;9.70;99.90;;;;;;6164050;23;20036;-86
2023/04/15 04:41:17;;;;;;;11.80;8.02;;;9.70;99.90;;;;;;6213489;23;20016;-85
2023/04/15 04:43:43;;;;;;;10.95;7.40;;;9.70;99.90;;;;;;6187569;23;19997;-86
2023/04/15 04:46:09;;;;;;;14.40;7.93;;;9.70;99.90;;;;;;6189218;23;20037;-86
2023/04/15 04:48:35;;;;;;;11.75;7.13;;;9.60;99.90;;;;;;6167739;23;20112;-92
2023/04/15 04:51:01;;;;;;;9.50;7.47;;;9.60;99.90;;;;;;6171468;23;20001;-91
2023/04/15 04:53:37;;;;;;;12.88;6.95;;;9.60;99.90;;;;;;6202354;23;19997;-90
2023/04/15 04:56:09;;;;;;;10.32;6.90;;;9.60;99.90;;;;;;6203887;23;20005;-92
2023/04/15 04:58:35;;;;;;;10.88;7.55;;;9.60;99.90;;;;;;6149220;23;20059;-91
2023/04/15 05:01:02;;;;;;;12.55;8.25;;;9.50;99.90;;;;;;6153294;23;20066;-91
2023/04/15 05:03:34;;;;;;;11.15;8.32;;;9.50;99.90;;;;;;6142140;23;20067;-87
2023/04/15 05:06:01;;;;;;;11.63;7.78;;;9.50;99.90;;;;;;6184871;23;20005;-86
2023/04/15 05:08:27;;;;;;;10.25;7.68;;;9.50;99.90;;;;;;6136610;23;20015;-85
2023/04/15 05:10:53;;;;;;;10.77;7.55;;;9.50;99.90;;;;;;6160928;23;20080;-87
2023/04/15 05:13:20;;;;;;;13.40;7.90;;;9.50;99.90;;;;;;6160565;23;20073;-85
2023/04/15 05:15:46;;;;;;;12.10;8.90;;;9.50;99.90;;;;;;6160641;23;20036;-85
2023/04/15 05:18:11;;;;;;;10.27;7.75;;;9.40;99.90;;;;;;6136666;23;20009;-86
2023/04/15 05:20:37;;;;;;;13.68;8.88;;;9.40;99.90;;;;;;6139381;23;20009;-92
2023/04/15 05:23:03;;;;;;;12.43;8.35;;;9.40;99.90;;;;;;6164878;23;20060;-91
2023/04/15 05:25:29;;;;;;;13.60;8.65;;;9.40;99.90;;;;;;6169373;23;20010;-92
2023/04/15 05:27:55;;;;;;;11.85;8.25;;;9.40;99.90;;;;;;6152317;23;19998;-92
2023/04/15 05:30:21;;;;;;;12.88;8.55;;;9.40;99.90;;;;;;6177633;23;20084;-91
2023/04/15 05:32:47;;;;;;;13.63;9.32;;;9.40;99.90;;;;;;6176991;23;20012;-90
2023/04/15 05:35:13;;;;;;;12.23;8.57;;;9.40;99.90;;;;;;6206997;23;20032;-92
2023/04/15 05:37:38;;;;;;;11.85;8.10;;;9.40;99.90;;;;;;6190967;23;20063;-86
2023/04/15 05:40:04;;;;;;;11.32;8.00;;;9.40;99.90;;;;;;6215729;23;20459;-86
2023/04/15 05:42:30;;;;;;;11.75;8.38;;;9.40;99.90;;;;;;6190716;23;20084;-85
2023/04/15 05:44:56;;;;;;;11.40;8.23;;;9.40;99.90;;;;;;6190682;23;20008;-87
2023/04/15 05:47:21;;;;;;;11.18;7.75;;;9.40;99.90;;;;;;6217659;23;20000;-86
2023/04/15 05:49:47;;;;;;;12.95;8.25;;;9.40;99.90;;;;;;6217528;23;20011;-86
2023/04/15 05:52:13;;;;;;;12.75;8.10;;;9.40;99.90;;;;;;6167303;23;20008;-86
2023/04/15 05:54:38;;;;;;;12.60;8.07;;;9.40;99.90;;;;;;6192425;23;20074;-84
2023/04/15 05:57:04;;;;;;;14.02;8.82;;;9.40;99.90;;;;;;6192510;23;20011;-85
2023/04/15 05:59:30;;;;;;;11.82;8.32;;;9.50;99.90;;;;;;6191954;23;20013;-86
2023/04/15 06:01:56;;;;;;;12.50;8.60;;;9.50;99.90;;;;;;6191760;23;20135;-86
2023/04/15 06:04:22;;;;;;;11.45;8.25;;;9.50;99.90;;;;;;6191746;23;20005;-85
2023/04/15 06:06:49;;;;;;;11.00;8.32;;;9.60;99.90;;;;;;6216612;23;20011;-85
2023/04/15 06:09:14;;;;;;;12.10;8.27;;;9.60;99.90;;;;;;6192296;23;20011;-93
2023/04/15 06:11:40;;;;;;;11.98;8.23;;;9.60;99.90;;;;;;6195566;23;20033;-94
2023/04/15 06:14:06;;;;;;;11.50;8.27;;;9.70;99.90;;;;;;6172291;23;20012;-93
2023/04/15 06:16:31;;;;;;;16.10;8.93;;;9.70;99.90;;;;;;6195656;23;20015;-93
2023/04/15 06:18:57;;;;;;;12.70;8.30;;;9.70;99.90;;;;;;6195392;23;20023;-93
2023/04/15 06:21:23;;;;;;;12.73;9.02;;;9.80;99.90;;;;;;6198169;23;20032;-91
2023/04/15 06:23:48;;;;;;;13.35;9.60;;;9.80;99.90;;;;;;6197701;23;20009;-93
2023/04/15 06:26:14;;;;;;;11.80;8.93;;;9.90;99.90;;;;;;6196681;23;20001;-86
2023/04/15 06:28:40;;;;;;;12.45;8.68;;;9.90;99.90;;;;;;6193755;23;20012;-86
2023/04/15 06:31:06;;;;;;;12.57;8.85;;;9.90;99.90;;;;;;6244239;23;20012;-87
2023/04/15 06:33:31;;;;;;;11.82;8.65;;;10.00;99.90;;;;;;6198371;23;20061;-91
2023/04/15 06:35:57;;;;;;;14.88;8.85;;;10.00;99.90;;;;;;6213343;23;20013;-91
2023/04/15 06:38:23;;;;;;;12.73;8.90;;;10.00;99.90;;;;;;6189494;23;20016;-92
2023/04/15 06:40:49;;;;;;;12.23;8.65;;;10.10;99.90;;;;;;6164770;23;20004;-92
2023/04/15 06:43:14;;;;;;;13.75;8.90;;;10.10;99.90;;;;;;6150344;23;20083;-92
2023/04/15 06:45:40;;;;;;;12.52;8.45;;;10.10;99.90;;;;;;6139728;23;20088;-94
2023/04/15 06:48:06;;;;;;;10.32;7.70;;;10.10;99.90;;;;;;6139347;23;20060;-93
2023/04/15 06:50:32;;;;;;;10.40;7.70;;;10.20;99.90;;;;;;6189684;23;20005;-94
2023/04/15 06:52:58;;;;;;;11.23;7.47;;;10.20;99.90;;;;;;6140269;23;20036;-92
2023/04/15 06:55:24;;;;;;;9.82;7.15;;;10.20;99.90;;;;;;6164001;23;20012;-93
2023/04/15 06:57:49;;;;;;;8.82;6.90;;;10.20;99.90;;;;;;6139255;23;20015;-93
2023/04/15 07:00:15;;;;;;;8.77;6.60;;;10.20;99.90;;;;;;6139482;23;20005;-91
2023/04/15 07:02:41;;;;;;;8.75;7.05;;;10.20;99.90;;;;;;6164086;23;20096;-90
2023/04/15 07:05:07;;;;;;;10.48;7.80;;;10.20;99.90;;;;;;6164259;23;20008;-91
2023/04/15 07:07:32;;;;;;;10.18;7.22;;;10.20;99.90;;;;;;6194378;23;19997;-91
2023/04/15 07:09:58;;;;;;;12.50;8.77;;;10.20;99.90;;;;;;6170798;23;20011;-91
2023/04/15 07:12:25;;;;;;;11.13;8.20;;;10.30;99.90;;;;;;6143467;23;20032;-92
2023/04/15 07:14:53;;;;;;;13.07;8.35;;;10.30;99.90;;;;;;6213232;23;20088;-90
2023/04/15 07:17:21;;;;;;;11.40;7.80;;;10.30;99.90;;;;;;6141236;23;20020;-85
2023/04/15 07:19:46;;;;;;;13.25;8.05;;;10.30;99.90;;;;;;6171753;23;20060;-83
2023/04/15 07:22:12;;;;;;;10.93;7.38;;;10.30;99.90;;;;;;6211274;23;20024;-84
2023/04/15 07:24:37;;;;;;;10.77;7.13;;;10.30;99.90;;;;;;6237503;23;20009;-83
2023/04/15 07:27:03;;;;;;;9.60;6.43;;;10.30;99.90;;;;;;6184011;23;19997;-83
2023/04/15 07:29:29;;;;;;;10.07;7.00;;;10.30;99.90;;;;;;6161084;23;20031;-85
2023/04/15 07:31:55;;;;;;;13.88;7.60;;;10.40;99.90;;;;;;6185780;23;20016;-86
2023/04/15 07:34:21;;;;;;;9.95;6.80;;;10.40;99.90;;;;;;6186614;23;20012;-86
2023/04/15 07:36:50;;;;;;;12.07;6.80;;;10.40;99.90;;;;;;6208434;23;20012;-87
2023/04/15 07:39:17;;;;;;;10.27;6.43;;;10.50;99.90;;;;;;6167318;23;20035;-87
2023/04/15 07:41:43;;;;;;;9.13;6.68;;;10.50;99.90;;;;;;6191027;23;20432;-87
2023/04/15 07:44:09;;;;;;;10.93;6.40;;;10.50;99.90;;;;;;6191469;23;20009;-87
2023/04/15 07:46:36;;;;;;;8.80;6.43;;;10.50;99.90;;;;;;6191360;23;20005;-87
2023/04/15 07:49:01;;;;;;;10.55;6.78;;;10.60;99.90;;;;;;6216271;23;20331;-86
2023/04/15 07:51:28;;;;;;;8.95;6.68;;;10.60;99.90;;;;;;6190962;23;20019;-86
2023/04/15 07:53:54;;;;;;;9.50;7.18;;;10.60;99.90;;;;;;6192100;23;20379;-86
2023/04/15 07:56:20;;;;;;;9.48;6.70;;;10.60;99.90;;;;;;6191055;23;20008;-86
2023/04/15 07:58:46;;;;;;;10.60;6.63;;;10.70;99.90;;;;;;6217015;23;20439;-93
2023/04/15 08:01:12;;;;;;;9.13;7.00;;;10.70;99.90;;;;;;6192985;23;20016;-93
2023/04/15 08:03:38;;;;;;;10.75;6.40;;;10.70;99.90;;;;;;6195407;23;20008;-93
2023/04/15 08:06:05;;;;;;;9.27;5.72;;;10.80;99.90;;;;;;6195681;23;20008;-92
2023/04/15 08:08:31;;;;;;;9.93;6.32;;;10.80;99.90;;;;;;6191878;23;20088;-90
2023/04/15 08:10:57;;;;;;;9.10;5.82;;;10.80;99.90;;;;;;6167693;23;20005;-91
2023/04/15 08:13:23;;;;;;;10.77;6.30;;;10.90;99.90;;;;;;6192010;23;20008;-91
2023/04/15 08:16:13;;;;;;;9.65;6.32;;;10.90;99.90;;;;;;6167649;23;20376;-90
2023/04/15 08:18:42;;;;;;;9.55;6.40;;;11.00;99.90;;;;;;6202838;23;20067;-92
2023/04/15 08:21:09;;;;;;;9.25;6.07;;;11.00;99.90;;;;;;6192524;23;20004;-91
2023/04/15 08:23:47;;;;;;;8.60;5.93;;;11.10;99.90;;;;;;6191760;23;20005;-87
2023/04/15 08:26:13;;;;;;;10.90;5.35;;;11.10;99.90;;;;;;6192089;23;20092;-84
2023/04/15 08:28:40;;;;;;;7.95;5.28;;;11.20;99.90;;;;;;6227386;23;20012;-89
2023/04/15 08:31:06;;;;;;;7.45;4.63;;;11.20;99.90;;;;;;6229172;23;20010;-90
2023/04/15 08:33:32;;;;;;;7.38;5.22;;;11.30;99.90;;;;;;6202185;23;20036;-91
2023/04/15 08:35:57;;;;;;;6.55;5.07;;;11.30;99.90;;;;;;6231790;23;20060;-93
2023/04/15 08:38:23;;;;;;;7.10;4.72;;;11.40;99.90;;;;;;6205544;23;20036;-94
2023/04/15 08:40:49;;;;;;;7.75;4.28;;;11.40;99.90;;;;;;6188503;23;20009;-92
2023/04/15 08:43:27;;;;;;;6.93;4.53;;;11.50;99.90;;;;;;6138389;23;20012;-93
2023/04/15 08:46:00;;;;;;;5.93;3.75;;;11.50;99.90;;;;;;6188096;23;20095;-93
2023/04/15 08:48:33;;;;;;;5.47;3.55;;;11.60;99.90;;;;;;6138441;23;20012;-94
2023/04/15 08:50:59;;;;;;;4.65;3.25;;;11.60;99.90;;;;;;6187612;23;20387;-92
2023/04/15 08:53:29;;;;;;;5.55;3.30;;;11.70;99.90;;;;;;6162882;23;20040;-94
2023/04/15 08:55:57;;;;;;;7.03;3.22;;;11.70;99.90;;;;;;6187261;23;20028;-93
2023/04/15 08:58:24;;;;;;;7.30;3.80;;;11.80;99.90;;;;;;6186537;23;20009;-92
2023/04/15 09:00:49;;;;;;;5.93;3.75;;;11.90;99.90;;;;;;6137905;23;20017;-94
2023/04/15 09:03:16;;;;;;;6.55;3.42;;;11.90;99.90;;;;;;6188753;23;20005;-93
2023/04/15 09:05:42;;;;;;;5.50;3.55;;;11.90;99.90;;;;;;6138308;23;20001;-93
2023/04/15 09:08:08;;;;;;;5.65;3.55;;;11.90;99.90;;;;;;6186948;23;20548;-92
2023/04/15 09:10:34;;;;;;;7.22;4.00;;;12.00;99.90;;;;;;6162604;23;20054;-92
2023/04/15 09:13:00;;;;;;;8.15;4.75;;;12.00;99.90;;;;;;6161932;23;20001;-85
2023/04/15 09:15:28;;;;;;;6.80;3.80;;;12.10;99.90;;;;;;6161100;23;20432;-85
2023/04/15 09:17:55;;;;;;;6.60;3.60;;;12.10;99.90;;;;;;6162469;23;20053;-90
2023/04/15 09:20:21;;;;;;;5.70;3.63;;;12.20;99.90;;;;;;6165149;23;20428;-91
2023/04/15 09:22:59;;;;;;;6.93;4.18;;;12.20;99.90;;;;;;6166733;23;20088;-91
2023/04/15 09:25:27;;;;;;;6.55;3.42;;;12.20;99.90;;;;;;6140741;23;20067;-91
2023/04/15 09:27:55;;;;;;;6.20;3.30;;;12.30;99.90;;;;;;6165843;23;20005;-91
2023/04/15 09:30:21;;;;;;;7.68;3.30;;;12.30;99.90;;;;;;6139937;23;20017;-91
2023/04/15 09:32:57;;;;;;;4.82;3.30;;;12.40;99.90;;;;;;6139374;23;20055;-91
2023/04/15 09:35:25;;;;;;;5.88;3.67;;;12.40;99.90;;;;;;6188891;23;20025;-89
2023/04/15 09:37:51;;;;;;;5.75;3.55;;;12.50;99.90;;;;;;6194640;23;20017;-84
2023/04/15 09:40:40;;;;;;;7.00;3.83;;;12.50;99.90;;;;;;6201469;23;20448;-84
2023/04/15 09:43:07;;;;;;;6.10;3.70;;;12.60;99.90;;;;;;6179533;23;20035;-85
2023/04/15 09:45:34;;;;;;;6.15;3.80;;;12.60;99.90;;;;;;6198116;23;20340;-93
2023/04/15 09:48:33;;;;;;;5.45;3.58;;;12.70;99.90;;;;;;6183151;23;20001;-93
2023/04/15 09:51:05;;;;;;;5.65;3.42;;;12.80;99.90;;;;;;6175350;23;20009;-92
2023/04/15 09:53:35;;;;;;;5.85;3.40;;;12.90;99.90;;;;;;6167277;23;20005;-92
2023/04/15 09:56:06;;;;;;;6.03;3.60;;;13.00;99.90;;;;;;6189312;23;20434;-93
2023/04/15 09:58:40;;;;;;;5.45;3.85;;;13.00;99.90;;;;;;6165860;23;20507;-93
2023/04/15 10:01:07;;;;;;;5.80;3.35;;;13.10;99.90;;;;;;6166124;23;20013;-92
2023/04/15 10:03:41;;;;;;;5.07;3.33;;;13.20;99.90;;;;;;6168212;23;20436;-86
2023/04/15 10:06:09;;;;;;;5.07;3.35;;;13.20;99.90;;;;;;6199502;23;20005;-85
2023/04/15 10:08:35;;;;;;;8.40;3.83;;;13.20;99.90;;;;;;6175413;23;20005;-86
2023/04/15 10:11:05;;;;;;;5.05;2.92;;;13.30;99.90;;;;;;6188764;23;20032;-91
2023/04/15 10:13:36;;;;;;;4.65;3.03;;;13.40;99.90;;;;;;6188676;23;20005;-90
2023/04/15 10:16:10;;;;;;;4.75;2.97;;;13.40;99.90;;;;;;6174692;23;20012;-86
2023/04/15 10:18:40;;;;;;;4.60;3.03;;;13.50;99.90;;;;;;6201064;23;20092;-86
2023/04/15 10:21:07;;;;;;;4.38;2.88;;;13.50;99.90;;;;;;6187154;23;20009;-87
2023/04/15 10:23:33;;;;;;;5.28;3.30;;;13.60;99.90;;;;;;6162367;23;20435;-86
2023/04/15 10:26:00;;;;;;;4.93;2.90;;;13.70;99.90;;;;;;6162584;23;20305;-86
2023/04/15 10:28:26;;;;;;;5.25;2.70;;;13.80;99.90;;;;;;6188113;23;20079;-86
2023/04/15 10:30:52;;;;;;;5.75;2.78;;;13.90;99.90;;;;;;6162021;23;20418;-85
2023/04/15 10:33:22;;;;;;;3.92;2.42;;;14.00;99.90;;;;;;6161467;23;20088;-86
2023/04/15 10:35:50;;;;;;;4.22;2.70;;;14.00;99.90;;;;;;6188585;23;20049;-94
2023/04/15 10:38:44;;;;;;;4.07;2.42;;;14.10;99.90;;;;;;6211327;23;20031;-95
2023/04/15 10:41:20;;;;;;;4.50;3.08;;;14.20;99.90;;;;;;6188894;23;20037;-94
2023/04/15 10:43:53;;;;;;;5.28;2.75;;;14.30;99.90;;;;;;6190613;23;20005;-95
2023/04/15 10:46:40;;;;;;;5.20;2.85;;;14.40;99.90;;;;;;6164943;23;20001;-95
2023/04/15 10:49:23;;;;;;;4.18;2.70;;;14.50;99.90;;;;;;6190456;23;20008;-95
2023/04/15 10:51:56;;;;;;;5.63;2.70;;;14.60;99.90;;;;;;6153672;23;20168;-93
2023/04/15 10:54:25;;;;;;;4.32;2.78;;;14.60;99.90;;;;;;6189224;23;20005;-94
2023/04/15 10:57:06;;;;;;;4.72;2.80;;;14.70;99.90;;;;;;6182909;23;20005;-93
2023/04/15 10:59:35;;;;;;;5.10;2.90;;;14.70;99.90;;;;;;6136713;23;20009;-93
2023/04/15 11:02:06;;;;;;;3.90;2.50;;;14.80;99.90;;;;;;6192723;23;20004;-95
2023/04/15 11:04:56;;;;;;;4.88;2.45;;;14.80;99.90;;;;;;6141823;23;20036;-93
2023/04/15 11:07:40;;;;;;;4.00;2.50;;;14.90;99.90;;;;;;6190397;23;20008;-94
2023/04/15 11:10:24;;;;;;;3.13;2.22;;;14.90;99.90;;;;;;6183605;23;20005;-86
2023/04/15 11:12:57;;;;;;;4.40;2.42;;;14.90;99.90;;;;;;6184862;23;20016;-85
2023/04/15 11:15:31;;;;;;;3.72;2.30;;;14.90;99.90;;;;;;6160761;23;20005;-85
2023/04/15 11:17:58;;;;;;;4.68;2.65;;;15.00;99.90;;;;;;6184857;23;20027;-84
2023/04/15 11:20:24;;;;;;;4.20;2.60;;;15.10;99.90;;;;;;6135715;23;20117;-85
2023/04/15 11:22:52;;;;;;;4.03;2.67;;;15.10;99.90;;;;;;6135212;23;20005;-85
2023/04/15 11:25:25;;;;;;;4.88;2.78;;;15.20;99.90;;;;;;6135501;23;20009;-90
2023/04/15 11:27:56;;;;;;;6.43;2.17;;;15.20;99.90;;;;;;6137101;23;20027;-90
2023/04/15 11:30:23;;;;;;;3.42;2.17;;;15.20;99.90;;;;;;6190550;23;20001;-86
2023/04/15 11:32:50;;;;;;;3.60;1.90;;;15.20;99.90;;;;;;6180020;23;20023;-86
2023/04/15 11:35:17;;;;;;;4.18;1.83;;;15.40;99.90;;;;;;6185094;23;20005;-86
2023/04/15 11:37:44;;;;;;;4.18;1.88;;;15.40;99.90;;;;;;6138377;23;1184937;-85
2023/04/15 11:40:11;;;;;;;2.75;1.75;;;15.50;99.90;;;;;;6202772;23;19993;-87
2023/04/15 11:42:36;;;;;;;3.45;1.50;;;15.60;99.90;;;;;;6188999;23;20001;-92
2023/04/15 11:45:10;;;;;;;3.28;1.70;;;15.70;99.90;;;;;;6162589;23;20036;-94
2023/04/15 11:47:36;;;;;;;2.40;1.42;;;15.80;99.70;;;;;;6162834;23;20001;-93
2023/04/15 11:50:15;;;;;;;3.40;1.90;;;15.90;99.50;;;;;;6187470;23;19997;-94
2023/04/15 11:52:53;;;;;;;3.17;1.83;;;15.90;99.00;;;;;;6162983;23;20005;-90
2023/04/15 11:55:19;;;;;;;3.17;1.40;;;15.90;98.60;;;;;;6187179;23;20009;-90
2023/04/15 11:57:45;;;;;;;2.42;1.50;;;16.00;98.40;;;;;;6162194;23;20017;-90
2023/04/15 12:00:12;;;;;;;2.45;1.50;;;16.10;98.20;;;;;;6177780;23;20028;-94
2023/04/15 12:03:15;;;;;;;2.60;1.40;;;16.10;97.70;;;;;;6183912;23;20013;-93
2023/04/15 12:06:11;;;;;;;2.95;1.48;;;16.20;97.30;;;;;;6207119;23;20310;-94
2023/04/15 12:08:58;;;;;;;2.63;1.40;;;16.30;97.20;;;;;;6196068;23;20001;-94
2023/04/15 12:11:29;;;;;;;2.78;1.70;;;16.40;96.80;;;;;;6195049;23;20012;-94
2023/04/15 12:14:12;;;;;;;2.50;1.30;;;16.40;96.40;;;;;;6201474;23;20005;-94
2023/04/15 12:16:49;;;;;;;3.58;1.33;;;16.50;95.60;;;;;;6194439;23;20016;-94
2023/04/15 12:19:21;;;;;;;3.83;1.73;;;16.50;95.20;;;;;;6190602;23;20001;-94
2023/04/15 12:21:48;;;;;;;1.98;1.40;;;16.50;94.90;;;;;;6189916;23;20005;-95
2023/04/15 12:24:13;;;;;;;3.00;1.30;;;16.50;94.70;;;;;;6168348;23;20005;-95
2023/04/15 12:26:48;;;;;;;1.85;1.00;;;16.50;94.60;;;;;;6141133;23;20444;-95
2023/04/15 12:29:15;;;;;;;2.97;1.38;;;16.50;94.60;;;;;;6194197;23;20001;-94
2023/04/15 12:32:02;;;;;;;2.20;1.17;;;16.60;94.90;;;;;;6171393;23;20005;-95
2023/04/15 12:34:31;;;;;;;3.00;1.48;;;16.70;94.50;;;;;;6203566;23;20030;-93
2023/04/15 12:36:58;;;;;;;1.48;1.30;;;16.70;94.30;;;;;;6210280;23;20028;-93
2023/04/15 12:39:27;;;;;;;2.28;1.40;;;16.80;94.20;;;;;;6160037;23;20001;-94
2023/04/15 12:41:53;;;;;;;2.67;1.25;;;16.80;94.00;;;;;;6181738;23;20009;-95
2023/04/15 12:44:19;;;;;;;1.77;1.00;;;16.90;93.70;;;;;;6156573;23;20005;-96
2023/04/15 12:46:45;;;;;;;1.58;1.20;;;17.00;93.70;;;;;;6158682;23;20008;-94
2023/04/15 12:49:27;;;;;;;2.03;1.40;;;17.10;94.00;;;;;;6142105;23;20001;-86
2023/04/15 12:51:55;;;;;;;2.45;1.10;;;17.10;93.10;;;;;;6194807;23;20031;-86